createdAt,value
2022-09-11T00:01:29.073Z,6.43
2022-09-11T00:08:32.342Z,7.63
2022-09-11T00:15:35.737Z,7.90
2022-09-11T00:22:39.557Z,8.87
2022-09-11T00:29:42.644Z,9.50
2022-09-11T00:36:46.178Z,6.97
2022-09-11T00:43:57.530Z,6.70
2022-09-11T00:51:11.087Z,5.57
2022-09-11T00:58:14.345Z,4.43
2022-09-11T01:05:17.568Z,16.57
2022-09-11T01:12:24.241Z,35.70
2022-09-11T01:19:27.261Z,6.43
2022-09-11T01:26:58.744Z,6.57
2022-09-11T01:34:36.040Z,12.83
2022-09-11T01:41:50.453Z,8.40
2022-09-11T01:48:55.361Z,3.70
2022-09-11T01:56:06.255Z,4.63
2022-09-11T02:03:27.733Z,8.30
2022-09-11T02:10:54.699Z,4.30
2022-09-11T02:18:06.534Z,4.07
2022-09-11T02:25:10.022Z,3.37
2022-09-11T02:32:14.172Z,4.10
2022-09-11T02:39:36.732Z,3.67
2022-09-11T02:47:17.505Z,5.10
2022-09-11T02:54:53.478Z,4.50
2022-09-11T03:02:02.238Z,4.30
2022-09-11T03:09:07.316Z,5.70
2022-09-11T03:16:12.416Z,4.60
2022-09-11T03:23:15.522Z,5.83
2022-09-11T03:30:18.579Z,10.57
2022-09-11T03:37:21.696Z,7.07
2022-09-11T03:44:25.405Z,9.40
2022-09-11T03:51:28.609Z,8.73
2022-09-11T03:58:31.665Z,9.90
2022-09-11T04:05:34.723Z,8.83
2022-09-11T04:12:37.757Z,8.60
2022-09-11T04:19:41.784Z,15.03
2022-09-11T04:26:45.217Z,10.80
2022-09-11T04:33:48.286Z,11.67
2022-09-11T04:40:55.469Z,13.87
2022-09-11T04:48:09.059Z,17.33
2022-09-11T04:55:16.743Z,14.17
2022-09-11T05:02:19.988Z,14.63
2022-09-11T05:09:23.080Z,13.50
2022-09-11T05:16:27.287Z,19.50
2022-09-11T05:23:34.769Z,20.77
2022-09-11T05:30:37.824Z,18.07
2022-09-11T05:37:41.394Z,20.30
2022-09-11T05:44:47.186Z,21.30
2022-09-11T05:52:01.547Z,21.63
2022-09-11T05:59:05.203Z,22.93
2022-09-11T06:06:12.503Z,24.13
2022-09-11T06:13:17.781Z,25.97
2022-09-11T06:20:20.790Z,22.57
2022-09-11T06:27:26.897Z,22.37
2022-09-11T06:34:31.607Z,23.53
2022-09-11T06:41:34.662Z,21.30
2022-09-11T06:48:37.697Z,20.40
2022-09-11T06:55:41.241Z,19.80
2022-09-11T07:02:45.199Z,21.33
2022-09-11T07:09:53.363Z,16.60
2022-09-11T07:17:04.037Z,21.40
2022-09-11T07:24:07.187Z,17.47
2022-09-11T07:31:11.188Z,14.60
2022-09-11T07:38:15.485Z,19.33
2022-09-11T07:45:22.463Z,19.00
2022-09-11T07:52:26.846Z,18.20
2022-09-11T07:59:35.171Z,12.53
2022-09-11T08:06:38.269Z,22.03
2022-09-11T08:13:42.883Z,20.33
2022-09-11T08:20:46.048Z,15.80
2022-09-11T08:27:49.584Z,16.80
2022-09-11T08:34:52.959Z,14.43
2022-09-11T08:41:56.487Z,15.50
2022-09-11T08:49:08.683Z,15.40
2022-09-11T08:56:30.389Z,15.40
2022-09-11T09:04:30.892Z,12.57
2022-09-11T09:11:50.610Z,14.43
2022-09-11T09:19:05.021Z,12.87
2022-09-11T09:26:19.061Z,10.20
2022-09-11T09:33:29.063Z,10.80
2022-09-11T09:40:33.324Z,11.43
2022-09-11T09:47:42.224Z,12.50
2022-09-11T09:54:51.812Z,11.40
2022-09-11T10:01:59.716Z,9.63
2022-09-11T10:09:38.763Z,13.80
2022-09-11T10:16:53.870Z,15.87
2022-09-11T10:24:30.404Z,12.97
2022-09-11T10:31:39.719Z,11.70
2022-09-11T10:39:04.104Z,11.43
2022-09-11T10:46:18.642Z,8.33
2022-09-11T10:53:22.883Z,9.90
2022-09-11T11:00:40.425Z,9.20
2022-09-11T11:08:03.001Z,11.93
2022-09-11T11:15:52.266Z,9.50
2022-09-11T11:23:27.408Z,9.00
2022-09-11T11:31:20.404Z,8.37
2022-09-11T11:38:33.122Z,9.23
2022-09-11T11:45:45.782Z,9.10
2022-09-11T11:52:58.663Z,9.80
2022-09-11T12:00:27.967Z,8.43
2022-09-11T12:07:33.261Z,7.13
2022-09-11T12:14:39.088Z,6.70
2022-09-11T12:22:27.243Z,6.37
2022-09-11T12:29:33.318Z,5.50
2022-09-11T12:36:54.031Z,4.73
2022-09-11T12:44:38.978Z,7.67
2022-09-11T12:51:43.307Z,8.97
2022-09-11T12:58:48.266Z,4.07
2022-09-11T13:06:04.694Z,3.73
2022-09-11T13:13:26.665Z,6.03
2022-09-11T13:20:38.543Z,7.03
2022-09-11T13:27:43.938Z,9.07
2022-09-11T13:35:02.204Z,9.70
2022-09-11T13:42:09.177Z,7.30
2022-09-11T13:49:24.540Z,4.37
2022-09-11T13:56:32.979Z,3.10
2022-09-11T14:03:38.628Z,2.67
2022-09-11T14:10:43.352Z,4.70
2022-09-11T14:17:55.022Z,2.37
2022-09-11T14:25:01.656Z,2.70
2022-09-11T14:32:36.828Z,3.03
2022-09-11T14:39:45.029Z,3.77
2022-09-11T14:46:48.160Z,5.10
2022-09-11T14:53:55.787Z,4.10
2022-09-11T15:00:58.928Z,4.00
2022-09-11T15:08:03.425Z,9.90
2022-09-11T15:15:06.456Z,5.67
2022-09-11T15:22:11.532Z,6.77
2022-09-11T15:29:14.844Z,9.17
2022-09-11T15:36:19.094Z,7.40
2022-09-11T15:43:22.760Z,8.10
2022-09-11T15:50:34.997Z,3.07
2022-09-11T15:57:39.284Z,2.90
2022-09-11T16:04:42.346Z,2.70
2022-09-11T16:11:46.972Z,3.00
2022-09-11T16:18:50.020Z,9.10
2022-09-11T16:25:53.197Z,2.60
2022-09-11T16:32:56.376Z,1.77
2022-09-11T16:40:01.788Z,29.97
2022-09-11T16:47:06.752Z,2.40
2022-09-11T16:54:09.806Z,1.60
2022-09-11T17:01:16.640Z,2.20
2022-09-11T17:08:23.497Z,3.60
2022-09-11T17:15:27.519Z,6.50
2022-09-11T17:22:31.425Z,3.10
2022-09-11T17:29:35.080Z,3.27
2022-09-11T17:36:38.658Z,3.83
2022-09-11T17:43:41.767Z,3.90
2022-09-11T17:50:44.804Z,2.73
2022-09-11T17:57:48.069Z,2.90
2022-09-11T18:04:59.591Z,9.20
2022-09-11T18:12:04.085Z,3.17
2022-09-11T18:19:07.653Z,3.10
2022-09-11T18:26:11.205Z,3.53
2022-09-11T18:33:16.485Z,5.80
2022-09-11T18:40:21.384Z,5.07
2022-09-11T18:47:27.773Z,5.07
2022-09-11T18:54:30.983Z,4.07
2022-09-11T19:01:34.690Z,9.40
2022-09-11T19:08:38.438Z,7.27
2022-09-11T19:15:41.659Z,6.30
2022-09-11T19:22:44.758Z,6.03
2022-09-11T19:29:50.044Z,6.10
2022-09-11T19:37:04.192Z,5.90
2022-09-11T19:44:07.486Z,4.83
2022-09-11T19:51:11.308Z,4.73
2022-09-11T19:58:14.404Z,6.83
2022-09-11T20:05:19.314Z,6.40
2022-09-11T20:12:24.969Z,5.67
2022-09-11T20:19:29.850Z,4.10
2022-09-11T20:26:33.046Z,6.50
2022-09-11T20:33:41.451Z,8.27
2022-09-11T20:40:46.245Z,14.83
2022-09-11T20:47:49.313Z,12.43
2022-09-11T20:54:54.270Z,23.87
2022-09-11T21:01:57.341Z,5.30
2022-09-11T21:09:00.489Z,5.57
2022-09-11T21:16:03.643Z,4.93
2022-09-11T21:23:06.918Z,5.80
2022-09-11T21:30:12.017Z,5.93
2022-09-11T21:37:15.150Z,6.43
2022-09-11T21:44:18.288Z,7.33
2022-09-11T21:51:21.605Z,9.63
2022-09-11T21:58:26.162Z,6.60
2022-09-11T22:05:29.230Z,3.83
2022-09-11T22:12:32.322Z,4.30
2022-09-11T22:19:35.560Z,4.77
2022-09-11T22:26:38.631Z,5.70
2022-09-11T22:33:41.927Z,5.40
2022-09-11T22:40:45.361Z,3.60
2022-09-11T22:47:52.087Z,2.80
2022-09-11T22:54:55.142Z,2.70
2022-09-11T23:01:58.747Z,2.50
2022-09-11T23:09:01.840Z,2.57
2022-09-11T23:16:07.840Z,3.10
2022-09-11T23:23:10.973Z,2.13
2022-09-11T23:30:15.102Z,2.63
2022-09-11T23:37:18.979Z,2.80
2022-09-11T23:44:22.115Z,2.27
2022-09-11T23:51:26.810Z,2.63
2022-09-11T23:58:29.932Z,3.27
